Thaty and Salin new meta
2v2 - Alliance - Sattella

Estatísticas do Time
Batalhas
V / D
Vitórias %
Rating Time
Semana 0 0 / 0 0% 1164
Período 72 27 / 45 38% 1164
Membros do Time
Nome
Raça
Classe
Facção
Vitórias
Batalhas
Rating Pessoal
Sattella 3 10 1089

Histórico de Rating do Time

ID Luta
Oponente
Resultado
Rating Time
Inicio da Batalha
Duração
Detalhes
80972Time Apagado Vitória1132 (+32)18/08/2020 às 22:368 min e 48 seg
80963PQP VEIPerdeu1135 (-3)18/08/2020 às 22:254 min e 1 seg
80958PQP VEIPerdeu1138 (-3)18/08/2020 às 22:205 min e 6 seg
80954Sopa do MacacoPerdeu1140 (-2)18/08/2020 às 22:141 min e 42 seg
80951Good Retri MMPerdeu1142 (-2)18/08/2020 às 22:112 min e 20 seg
80948Good Retri MMPerdeu1145 (-3)18/08/2020 às 22:081 min e 10 seg
80947Good Retri MMPerdeu1148 (-3)18/08/2020 às 22:0656 seg
80945Good Retri MMVitória1113 (+35)18/08/2020 às 22:055 min e 40 seg
80942shamaminiciantepriestlixPerdeu1115 (-2)18/08/2020 às 21:582 min e 50 seg
80940shamaminiciantepriestlixPerdeu1117 (-2)18/08/2020 às 21:542 min e 1 seg
69452TEMPLARIOSPerdeu1123 (-6)23/07/2020 às 18:3957 seg
69450TEMPLARIOSVitória1092 (+31)23/07/2020 às 18:3645 seg
69447Time Apagado Perdeu1094 (-2)23/07/2020 às 18:331 min e 3 seg
69445Instrutors AND MonitorsPerdeu1100 (-6)23/07/2020 às 18:301 min e 4 seg
69444nagazakiVitória1065 (+35)23/07/2020 às 18:281 min e 9 seg
69442nagazakiVitória1027 (+38)23/07/2020 às 18:251 min e 37 seg
69441TEMPLARIOSPerdeu1031 (-4)23/07/2020 às 18:2347 seg
69438TEMPLARIOSPerdeu1035 (-4)23/07/2020 às 18:2149 seg
69435Time Apagado Perdeu1037 (-2)23/07/2020 às 18:1849 seg
69433Time Apagado Perdeu1039 (-2)23/07/2020 às 18:161 min e 31 seg
65541feroz e furtivoVitória994 (+45)15/07/2020 às 19:491 min e 2 seg
65539com sonoPerdeu995 (-1)15/07/2020 às 19:473 min e 27 seg
65535mamando in arenaPerdeu995 (0)15/07/2020 às 19:414 min e 10 seg
65530ocean eyesVitória950 (+45)15/07/2020 às 19:367 min e 33 seg
65522com sonoVitória903 (+47)15/07/2020 às 19:2724 seg
65519VALDIR MEMEVitória855 (+48)15/07/2020 às 19:251 min e 39 seg
65517Gut healVitória808 (+47)15/07/2020 às 19:211 min e 10 seg
65515Gut healVitória761 (+47)15/07/2020 às 19:181 min e 31 seg
65509Maneva ImmortalPerdeu761 (0)15/07/2020 às 19:131 min e 12 seg
65507Maneva ImmortalPerdeu761 (0)15/07/2020 às 19:111 min e 39 seg
65504Maneva ImmortalPerdeu761 (0)15/07/2020 às 19:091 min e 0 seg
65500Maneva ImmortalPerdeu761 (0)15/07/2020 às 19:062 min e 41 seg
65494mamando in arenaPerdeu761 (0)15/07/2020 às 19:011 min e 4 seg
65491taturanaVitória715 (+46)15/07/2020 às 18:581 min e 31 seg
63623Fuzilada brabaVitória667 (+48)12/07/2020 às 00:3110 min e 16 seg
63615Fuzilada brabaPerdeu667 (0)12/07/2020 às 00:195 min e 9 seg
63610To de zoa po rlxPerdeu667 (0)12/07/2020 às 00:126 min e 39 seg
63608To de zoa po rlxVitória620 (+47)12/07/2020 às 00:055 min e 52 seg
63607To de zoa po rlxVitória573 (+47)11/07/2020 às 23:582 min e 10 seg
63606To de zoa po rlxPerdeu573 (0)11/07/2020 às 23:542 min e 37 seg
63605To de zoa po rlxVitória526 (+47)11/07/2020 às 23:504 min e 8 seg
63604Vai dormir mossPerdeu526 (0)11/07/2020 às 23:451 min e 11 seg
63602Vai dormir mossPerdeu526 (0)11/07/2020 às 23:414 min e 17 seg
63600To de zoa po rlxPerdeu526 (0)11/07/2020 às 23:352 min e 27 seg
63599COVID VAI TE MATAVitória478 (+48)11/07/2020 às 23:325 min e 4 seg
63597Time Apagado Vitória431 (+47)11/07/2020 às 23:261 min e 5 seg
63595Time Apagado Vitória384 (+47)11/07/2020 às 23:231 min e 26 seg
63593COVID VAI TE MATAVitória336 (+48)11/07/2020 às 23:194 min e 21 seg
63592AndBwxPerdeu336 (0)11/07/2020 às 23:141 min e 9 seg
63591COVID VAI TE MATAVitória288 (+48)11/07/2020 às 23:121 min e 38 seg
61914Time Apagado Perdeu288 (0)09/07/2020 às 00:131 min e 20 seg
61906Vanguarda da PalmeiraVitória240 (+48)09/07/2020 às 00:103 min e 54 seg
61890Atras de uma aventuraPerdeu240 (0)09/07/2020 às 00:053 min e 0 seg
61880irineuVitória192 (+48)08/07/2020 às 23:596 min e 20 seg
61863taturanaVitória144 (+48)08/07/2020 às 23:515 min e 0 seg
61852taturanaPerdeu144 (0)08/07/2020 às 23:451 min e 51 seg
61847taturanaPerdeu144 (0)08/07/2020 às 23:421 min e 45 seg
61128Time Apagado Perdeu144 (0)07/07/2020 às 19:173 min e 13 seg
61124Time Apagado Perdeu144 (0)07/07/2020 às 19:131 min e 27 seg
61122Time de doisVitória96 (+48)07/07/2020 às 19:101 min e 52 seg
61116Time de doisPerdeu96 (0)07/07/2020 às 19:073 min e 26 seg
61111M D atPerdeu96 (0)07/07/2020 às 19:021 min e 2 seg
61109Time Apagado Perdeu96 (0)07/07/2020 às 19:017 min e 48 seg
61101Time Apagado Perdeu96 (0)07/07/2020 às 18:522 min e 25 seg
61099Time Apagado Perdeu96 (0)07/07/2020 às 18:481 min e 7 seg
61097Time Apagado Perdeu96 (0)07/07/2020 às 18:462 min e 3 seg
61092Time Apagado Perdeu96 (0)07/07/2020 às 18:431 min e 19 seg
61090Time Apagado Vitória48 (+48)07/07/2020 às 18:402 min e 21 seg
61084Time Apagado Perdeu48 (0)07/07/2020 às 18:3750 seg
61082Time Apagado Perdeu48 (0)07/07/2020 às 18:3541 seg
61080taime is moni frendPerdeu48 (0)07/07/2020 às 18:331 min e 30 seg
61076Time Apagado Vitória0 (+48)07/07/2020 às 18:3051 seg

As informações dessa pagina são atualizadas a cada 15 minutos.